createdAt,value
2019-01-29T00:01:07.331Z,17.73
2019-01-29T00:03:36.559Z,20.27
2019-01-29T00:06:05.752Z,17.90
2019-01-29T00:08:34.911Z,15.83
2019-01-29T00:11:04.065Z,14.43
2019-01-29T00:13:33.147Z,19.67
2019-01-29T00:16:02.337Z,19.67
2019-01-29T00:18:31.418Z,17.07
2019-01-29T00:21:00.570Z,19.93
2019-01-29T00:23:29.668Z,13.33
2019-01-29T00:25:59.225Z,12.90
2019-01-29T00:28:28.932Z,12.57
2019-01-29T00:31:08.110Z,12.33
2019-01-29T00:33:37.776Z,14.70
2019-01-29T00:36:07.045Z,12.63
2019-01-29T00:38:37.058Z,12.57
2019-01-29T00:41:06.295Z,10.73
2019-01-29T00:43:36.380Z,12.80
2019-01-29T00:46:06.750Z,13.87
2019-01-29T00:48:38.746Z,18.73
2019-01-29T00:51:08.687Z,13.97
2019-01-29T00:53:38.126Z,15.60
2019-01-29T00:56:11.321Z,22.43
2019-01-29T00:58:41.034Z,14.23
2019-01-29T01:01:10.558Z,12.90
2019-01-29T01:03:40.045Z,14.50
2019-01-29T01:06:09.352Z,17.10
2019-01-29T01:08:40.249Z,15.37
2019-01-29T01:11:10.157Z,18.90
2019-01-29T01:13:39.878Z,14.83
2019-01-29T01:16:09.305Z,16.53
2019-01-29T01:18:41.179Z,14.47
2019-01-29T01:21:17.574Z,16.90
2019-01-29T01:23:46.960Z,11.57
2019-01-29T01:26:18.439Z,18.67
2019-01-29T01:28:47.855Z,17.23
2019-01-29T01:31:19.341Z,13.47
2019-01-29T01:33:51.659Z,15.00
2019-01-29T01:36:21.470Z,18.27
2019-01-29T01:38:50.763Z,20.27
2019-01-29T01:41:21.022Z,16.40
2019-01-29T01:43:50.820Z,18.77
2019-01-29T01:46:20.397Z,15.10
2019-01-29T01:48:50.382Z,15.43
2019-01-29T01:51:20.704Z,13.73
2019-01-29T01:53:50.138Z,16.60
2019-01-29T01:56:21.282Z,15.40
2019-01-29T01:58:50.724Z,13.33
2019-01-29T02:01:20.065Z,11.33
2019-01-29T02:03:49.461Z,17.60
2019-01-29T02:06:18.940Z,11.80
2019-01-29T02:08:48.377Z,12.70
2019-01-29T02:11:17.898Z,10.67
2019-01-29T02:13:47.223Z,12.80
2019-01-29T02:16:19.585Z,12.30
2019-01-29T02:18:48.943Z,15.27
2019-01-29T02:21:18.485Z,14.70
2019-01-29T02:23:48.649Z,10.87
2019-01-29T02:26:17.994Z,15.87
2019-01-29T02:28:47.607Z,16.87
2019-01-29T02:31:17.106Z,16.37
2019-01-29T02:33:46.615Z,13.50
2019-01-29T02:36:19.598Z,15.90
2019-01-29T02:38:48.885Z,12.30
2019-01-29T02:41:18.263Z,20.47
2019-01-29T02:43:52.264Z,20.60
2019-01-29T02:46:28.107Z,15.07
2019-01-29T02:48:57.463Z,16.13
2019-01-29T02:51:26.962Z,12.97
2019-01-29T02:53:59.181Z,18.97
2019-01-29T02:56:35.597Z,15.70
2019-01-29T02:59:09.909Z,20.60
2019-01-29T03:01:42.323Z,14.90
2019-01-29T03:04:11.748Z,11.23
2019-01-29T03:06:43.503Z,17.00
2019-01-29T03:09:12.751Z,16.43
2019-01-29T03:11:42.420Z,12.27
2019-01-29T03:14:11.969Z,15.07
2019-01-29T03:16:41.772Z,21.43
2019-01-29T03:19:13.751Z,15.10
2019-01-29T03:21:47.453Z,18.43
2019-01-29T03:24:22.606Z,14.10
2019-01-29T03:26:56.346Z,18.03
2019-01-29T03:29:28.946Z,13.97
2019-01-29T03:31:58.466Z,19.60
2019-01-29T03:34:33.222Z,18.97
2019-01-29T03:37:07.963Z,14.30
2019-01-29T03:39:37.634Z,19.03
2019-01-29T03:42:06.880Z,17.60
2019-01-29T03:44:36.209Z,20.07
2019-01-29T03:47:05.525Z,19.87
2019-01-29T03:49:40.722Z,19.47
2019-01-29T03:52:10.333Z,14.90
2019-01-29T03:54:40.247Z,19.47
2019-01-29T03:57:10.102Z,23.80
2019-01-29T03:59:40.544Z,24.87
2019-01-29T04:02:10.086Z,18.23
2019-01-29T04:04:45.357Z,20.87
2019-01-29T04:07:19.398Z,17.40
2019-01-29T04:09:49.337Z,19.97
2019-01-29T04:12:21.595Z,22.17
2019-01-29T04:14:52.712Z,20.57
2019-01-29T04:17:24.292Z,17.00
2019-01-29T04:19:53.577Z,15.10
2019-01-29T04:22:23.437Z,20.47
2019-01-29T04:24:53.292Z,18.33
2019-01-29T04:27:26.197Z,20.37
2019-01-29T04:29:55.786Z,18.43
2019-01-29T04:32:24.879Z,17.60
2019-01-29T04:34:53.997Z,19.97
2019-01-29T04:37:23.107Z,22.13
2019-01-29T04:39:52.243Z,17.47
2019-01-29T04:42:21.289Z,21.03
2019-01-29T04:44:50.408Z,26.83
2019-01-29T04:47:19.619Z,19.13
2019-01-29T04:49:53.637Z,20.47
2019-01-29T04:52:27.441Z,22.20
2019-01-29T04:54:57.639Z,20.67
2019-01-29T04:57:32.402Z,26.17
2019-01-29T05:00:06.501Z,23.67
2019-01-29T05:02:36.156Z,23.43
2019-01-29T05:05:08.997Z,24.17
2019-01-29T05:07:39.713Z,24.07
2019-01-29T05:10:13.693Z,29.30
2019-01-29T05:12:44.786Z,28.87
2019-01-29T05:15:15.219Z,25.77
2019-01-29T05:17:44.731Z,30.67
2019-01-29T05:20:16.782Z,29.57
2019-01-29T05:22:46.629Z,30.60
2019-01-29T05:25:16.241Z,29.33
2019-01-29T05:27:45.826Z,24.23
2019-01-29T05:30:20.717Z,25.87
2019-01-29T05:32:54.535Z,28.23
2019-01-29T05:35:26.400Z,28.23
2019-01-29T05:37:56.437Z,26.20
2019-01-29T05:40:31.127Z,21.93
2019-01-29T05:43:03.807Z,25.13
2019-01-29T05:45:40.194Z,26.17
2019-01-29T05:48:09.886Z,22.87
2019-01-29T05:50:39.308Z,26.93
2019-01-29T05:53:08.773Z,21.53
2019-01-29T05:55:41.604Z,21.20
2019-01-29T05:58:11.123Z,18.47
2019-01-29T06:00:44.009Z,22.17
2019-01-29T06:03:13.882Z,20.53
2019-01-29T06:05:43.360Z,21.27
2019-01-29T06:08:12.787Z,21.37
2019-01-29T06:10:42.425Z,25.23
2019-01-29T06:13:12.219Z,23.37
2019-01-29T06:15:41.763Z,17.40
2019-01-29T06:18:11.439Z,23.27
2019-01-29T06:20:41.135Z,19.93
2019-01-29T06:23:10.760Z,27.20
2019-01-29T06:25:41.240Z,26.97
2019-01-29T06:28:17.196Z,25.30
2019-01-29T06:30:46.754Z,23.80
2019-01-29T06:33:16.492Z,19.20
2019-01-29T06:35:48.958Z,22.53
2019-01-29T06:38:27.947Z,24.90
2019-01-29T06:41:02.011Z,21.47
2019-01-29T06:43:35.357Z,22.57
2019-01-29T06:46:05.088Z,21.67
2019-01-29T06:48:34.710Z,24.47
2019-01-29T06:51:06.567Z,20.53
2019-01-29T06:53:41.869Z,23.87
2019-01-29T06:56:11.437Z,25.63
2019-01-29T06:58:41.097Z,25.97
2019-01-29T07:01:12.493Z,23.47
2019-01-29T07:03:44.460Z,24.97
2019-01-29T07:06:14.192Z,28.17
2019-01-29T07:08:43.999Z,29.37
2019-01-29T07:11:13.189Z,27.67
2019-01-29T07:13:42.245Z,31.03
2019-01-29T07:16:30.678Z,29.53
2019-01-29T07:19:18.691Z,31.90
2019-01-29T07:21:47.827Z,33.97
2019-01-29T07:24:16.876Z,31.07
2019-01-29T07:26:46.086Z,33.10
2019-01-29T07:29:15.198Z,30.50
2019-01-29T07:31:44.316Z,30.13
2019-01-29T07:34:13.805Z,35.60
2019-01-29T07:36:43.203Z,33.60
2019-01-29T07:39:13.466Z,30.90
2019-01-29T07:41:43.248Z,32.07
2019-01-29T07:44:12.728Z,33.60
2019-01-29T07:46:42.686Z,35.53
2019-01-29T07:49:12.346Z,35.77
2019-01-29T07:51:42.281Z,33.77
2019-01-29T07:54:11.705Z,32.83
2019-01-29T07:56:46.455Z,39.63
2019-01-29T07:59:15.899Z,30.43
2019-01-29T08:01:45.774Z,33.07
2019-01-29T08:04:15.285Z,38.30
2019-01-29T08:06:45.029Z,31.53
2019-01-29T08:09:14.531Z,30.97
2019-01-29T08:11:43.833Z,30.50
2019-01-29T08:14:13.269Z,30.40
2019-01-29T08:16:42.739Z,31.70
2019-01-29T08:19:15.150Z,31.33
2019-01-29T08:21:46.784Z,32.13
2019-01-29T08:24:15.908Z,32.47
2019-01-29T08:26:45.634Z,31.93
2019-01-29T08:29:15.013Z,32.80
2019-01-29T08:31:45.310Z,27.97
2019-01-29T08:34:15.159Z,31.33
2019-01-29T08:36:44.867Z,33.17
2019-01-29T08:39:14.700Z,29.90
2019-01-29T08:41:44.147Z,28.20
2019-01-29T08:44:14.469Z,28.13
2019-01-29T08:46:50.710Z,28.13
2019-01-29T08:49:19.654Z,28.70
2019-01-29T08:51:48.738Z,27.80
2019-01-29T08:54:17.879Z,29.17
2019-01-29T08:56:47.033Z,33.93
2019-01-29T08:59:16.246Z,31.77
2019-01-29T09:01:45.268Z,29.03
2019-01-29T09:04:15.184Z,25.93
2019-01-29T09:06:44.335Z,27.57
2019-01-29T09:09:13.391Z,33.03
2019-01-29T09:11:42.477Z,34.33
2019-01-29T09:14:11.650Z,32.10
2019-01-29T09:16:40.687Z,29.13
2019-01-29T09:19:09.805Z,35.10
2019-01-29T09:21:38.929Z,34.50
2019-01-29T09:24:08.107Z,34.40
2019-01-29T09:26:37.296Z,27.93
2019-01-29T09:29:06.505Z,25.97
2019-01-29T09:31:35.736Z,23.53
2019-01-29T09:34:04.837Z,29.27
2019-01-29T09:36:34.160Z,25.30
2019-01-29T09:39:05.118Z,28.50
2019-01-29T09:41:34.185Z,26.37
2019-01-29T09:44:03.545Z,23.33
2019-01-29T09:46:32.615Z,20.43
2019-01-29T09:49:01.686Z,22.20
2019-01-29T09:51:31.066Z,21.00
2019-01-29T09:54:00.269Z,23.87
2019-01-29T09:56:29.374Z,21.13
2019-01-29T09:58:58.580Z,24.87
2019-01-29T10:01:27.890Z,23.00
2019-01-29T10:03:57.148Z,20.80
2019-01-29T10:06:26.376Z,17.57
2019-01-29T10:08:55.732Z,19.30
2019-01-29T10:11:24.919Z,19.77
2019-01-29T10:13:54.142Z,20.93
2019-01-29T10:16:23.387Z,20.60
2019-01-29T10:18:52.680Z,18.37
2019-01-29T10:21:21.800Z,21.10
2019-01-29T10:23:50.947Z,23.87
2019-01-29T10:26:20.037Z,23.50
2019-01-29T10:28:49.037Z,18.30
2019-01-29T10:31:18.616Z,23.77
2019-01-29T10:33:48.277Z,25.97
2019-01-29T10:36:17.376Z,21.23
2019-01-29T10:38:46.513Z,22.10
2019-01-29T10:41:15.509Z,22.17
2019-01-29T10:43:44.663Z,25.07
2019-01-29T10:46:13.730Z,20.47
2019-01-29T10:48:42.888Z,21.83
2019-01-29T10:51:11.998Z,23.93
2019-01-29T10:53:41.255Z,27.60
2019-01-29T10:56:12.016Z,25.40
2019-01-29T10:58:41.168Z,20.53
2019-01-29T11:01:10.712Z,18.00
2019-01-29T11:03:40.590Z,21.63
2019-01-29T11:06:09.681Z,24.67
2019-01-29T11:08:38.922Z,23.07
2019-01-29T11:11:08.051Z,21.40
2019-01-29T11:13:37.714Z,23.80
2019-01-29T11:16:07.082Z,21.40
2019-01-29T11:18:36.145Z,17.33
2019-01-29T11:21:05.274Z,18.73
2019-01-29T11:23:34.498Z,19.67
2019-01-29T11:26:03.603Z,19.40
2019-01-29T11:28:32.689Z,11.43
2019-01-29T11:31:02.888Z,14.00
2019-01-29T11:33:31.981Z,17.70
2019-01-29T11:36:01.175Z,17.83
2019-01-29T11:38:30.369Z,18.27
2019-01-29T11:40:59.536Z,15.73
2019-01-29T11:43:28.636Z,14.40
2019-01-29T11:45:57.837Z,17.43
2019-01-29T11:48:26.969Z,17.80
2019-01-29T11:50:56.082Z,15.77
2019-01-29T11:53:25.161Z,5.20
2019-01-29T11:55:54.240Z,8.60
2019-01-29T11:58:23.350Z,3.30
2019-01-29T12:01:11.637Z,4.67
2019-01-29T12:03:40.779Z,4.57
2019-01-29T12:06:09.986Z,4.23
2019-01-29T12:08:39.510Z,6.87
2019-01-29T12:11:09.200Z,3.67
2019-01-29T12:13:38.339Z,7.27
2019-01-29T12:16:07.440Z,5.40
2019-01-29T12:18:37.042Z,5.70
2019-01-29T12:21:06.176Z,5.73
2019-01-29T12:23:39.009Z,3.87
2019-01-29T12:26:13.239Z,3.53
2019-01-29T12:28:39.009Z,3.77
2019-01-29T12:31:08.207Z,2.80
2019-01-29T12:33:37.554Z,4.80
2019-01-29T12:36:07.132Z,2.67
2019-01-29T12:38:36.179Z,3.27
2019-01-29T12:41:05.591Z,3.03
2019-01-29T12:43:34.824Z,4.57
2019-01-29T12:46:04.238Z,4.57
2019-01-29T12:48:33.280Z,3.30
2019-01-29T12:51:05.147Z,3.73
2019-01-29T12:53:38.970Z,3.73
2019-01-29T12:56:08.125Z,2.63
2019-01-29T12:58:37.247Z,4.83
2019-01-29T13:01:06.339Z,5.30
2019-01-29T13:03:35.527Z,4.57
2019-01-29T13:06:04.657Z,3.77
2019-01-29T13:08:33.926Z,4.60
2019-01-29T13:11:03.032Z,5.80
2019-01-29T13:13:32.105Z,5.20
2019-01-29T13:16:01.227Z,6.73
2019-01-29T13:18:30.301Z,4.77
2019-01-29T13:20:59.483Z,4.17
2019-01-29T13:23:28.648Z,3.93
2019-01-29T13:25:57.826Z,5.57
2019-01-29T13:28:27.111Z,6.67
2019-01-29T13:30:56.314Z,7.40
2019-01-29T13:33:25.513Z,5.50
2019-01-29T13:35:54.733Z,10.27
2019-01-29T13:38:23.927Z,5.37
2019-01-29T13:40:53.017Z,7.87
2019-01-29T13:43:22.280Z,4.07
2019-01-29T13:45:51.390Z,4.97
2019-01-29T13:48:20.515Z,6.50
2019-01-29T13:50:55.822Z,4.03
2019-01-29T13:53:25.162Z,5.10
2019-01-29T13:55:54.224Z,4.17
2019-01-29T13:58:23.382Z,4.93
2019-01-29T14:00:52.498Z,7.13
2019-01-29T14:03:22.085Z,2.67
2019-01-29T14:05:51.213Z,4.07
2019-01-29T14:08:20.344Z,5.63
2019-01-29T14:10:49.434Z,3.50
2019-01-29T14:13:18.483Z,4.27
2019-01-29T14:15:52.476Z,2.43
2019-01-29T14:18:23.326Z,3.00
2019-01-29T14:20:52.444Z,3.93
2019-01-29T14:23:21.612Z,3.37
2019-01-29T14:25:50.753Z,3.43
2019-01-29T14:28:19.786Z,4.20
2019-01-29T14:30:49.263Z,2.87
2019-01-29T14:33:18.333Z,5.00
2019-01-29T14:35:48.424Z,5.70
2019-01-29T14:38:55.827Z,3.63
2019-01-29T14:41:24.936Z,2.53
2019-01-29T14:43:56.540Z,5.87
2019-01-29T14:46:25.815Z,3.00
2019-01-29T14:48:54.848Z,3.20
2019-01-29T14:51:23.922Z,2.47
2019-01-29T14:53:53.057Z,2.57
2019-01-29T14:56:22.290Z,3.60
2019-01-29T14:58:51.407Z,2.50
2019-01-29T15:01:20.512Z,3.30
2019-01-29T15:03:49.687Z,4.60
2019-01-29T15:06:18.826Z,3.97
2019-01-29T15:08:47.881Z,4.80
2019-01-29T15:11:16.952Z,3.20
2019-01-29T15:13:45.925Z,3.00
2019-01-29T15:16:29.797Z,4.40
2019-01-29T15:19:11.348Z,2.97
2019-01-29T15:21:40.401Z,3.97
2019-01-29T15:24:09.493Z,3.60
2019-01-29T15:26:38.568Z,4.10
2019-01-29T15:29:07.579Z,4.63
2019-01-29T15:31:36.633Z,3.17
2019-01-29T15:34:05.714Z,6.33
2019-01-29T15:36:34.873Z,3.93
2019-01-29T15:39:05.637Z,5.27
2019-01-29T15:41:34.730Z,4.77
2019-01-29T15:44:03.795Z,6.50
2019-01-29T15:46:32.970Z,6.70
2019-01-29T15:49:02.037Z,6.80
2019-01-29T15:51:33.125Z,5.70
2019-01-29T15:54:02.145Z,4.23
2019-01-29T15:56:31.220Z,6.37
2019-01-29T15:59:00.273Z,4.27
2019-01-29T16:01:32.152Z,7.47
2019-01-29T16:04:01.216Z,5.03
2019-01-29T16:06:30.280Z,7.03
2019-01-29T16:08:59.370Z,4.70
2019-01-29T16:11:28.438Z,5.40
2019-01-29T16:13:57.394Z,6.77
2019-01-29T16:16:26.406Z,7.20
2019-01-29T16:18:55.502Z,7.03
2019-01-29T16:21:24.565Z,6.30
2019-01-29T16:23:56.814Z,5.23
2019-01-29T16:26:25.933Z,5.27
2019-01-29T16:28:56.800Z,4.93
2019-01-29T16:31:26.036Z,6.03
2019-01-29T16:33:55.271Z,5.17
2019-01-29T16:36:24.519Z,6.47
2019-01-29T16:38:53.515Z,7.00
2019-01-29T16:41:22.601Z,4.97
2019-01-29T16:43:51.709Z,6.70
2019-01-29T16:46:20.718Z,5.40
2019-01-29T16:48:49.703Z,4.90
2019-01-29T16:51:18.738Z,11.07
2019-01-29T16:53:47.902Z,5.10
2019-01-29T16:56:16.979Z,5.53
2019-01-29T16:58:46.038Z,5.67
2019-01-29T17:01:17.460Z,5.37
2019-01-29T17:03:50.164Z,9.10
2019-01-29T17:06:19.156Z,5.80
2019-01-29T17:08:48.198Z,5.40
2019-01-29T17:11:17.286Z,5.60
2019-01-29T17:13:46.392Z,5.40
2019-01-29T17:16:15.462Z,5.00
2019-01-29T17:18:44.519Z,7.87
2019-01-29T17:21:13.647Z,10.40
2019-01-29T17:23:42.696Z,4.97
2019-01-29T17:26:11.764Z,7.07
2019-01-29T17:28:40.838Z,5.47
2019-01-29T17:31:09.872Z,7.33
2019-01-29T17:33:40.424Z,8.57
2019-01-29T17:36:17.622Z,6.33
2019-01-29T17:38:46.709Z,7.10
2019-01-29T17:41:15.699Z,4.90
2019-01-29T17:43:44.942Z,5.63
2019-01-29T17:46:13.995Z,7.20
2019-01-29T17:48:43.096Z,6.43
2019-01-29T17:51:12.185Z,5.53
2019-01-29T17:53:41.369Z,5.77
2019-01-29T17:56:10.483Z,7.53
2019-01-29T17:58:39.487Z,4.50
2019-01-29T18:01:10.254Z,5.23
2019-01-29T18:03:39.299Z,4.80
2019-01-29T18:06:08.402Z,6.13
2019-01-29T18:08:37.573Z,8.43
2019-01-29T18:11:06.699Z,6.03
2019-01-29T18:13:35.762Z,7.93
2019-01-29T18:16:04.895Z,5.33
2019-01-29T18:18:33.979Z,7.80
2019-01-29T18:21:03.099Z,7.23
2019-01-29T18:23:32.221Z,8.87
2019-01-29T18:26:01.289Z,6.47
2019-01-29T18:28:30.453Z,6.43
2019-01-29T18:30:59.593Z,5.57
2019-01-29T18:33:28.661Z,5.63
2019-01-29T18:35:57.671Z,5.13
2019-01-29T18:38:26.710Z,4.87
2019-01-29T18:40:56.922Z,5.57
2019-01-29T18:43:26.075Z,5.97
2019-01-29T18:45:55.132Z,8.13
2019-01-29T18:48:24.245Z,12.47
2019-01-29T18:50:53.373Z,8.07
2019-01-29T18:53:22.511Z,6.17
2019-01-29T18:55:51.602Z,5.87
2019-01-29T18:58:20.709Z,8.53
2019-01-29T19:00:54.871Z,10.30
2019-01-29T19:03:20.617Z,7.87
2019-01-29T19:05:49.737Z,7.77
2019-01-29T19:08:18.834Z,7.20
2019-01-29T19:10:47.986Z,8.37
2019-01-29T19:13:16.971Z,8.13
2019-01-29T19:15:45.928Z,6.43
2019-01-29T19:18:15.067Z,5.73
2019-01-29T19:20:44.142Z,6.13
2019-01-29T19:23:13.218Z,6.73
2019-01-29T19:25:42.242Z,7.90
2019-01-29T19:28:21.416Z,7.70
2019-01-29T19:30:42.047Z,8.50
2019-01-29T19:33:11.188Z,8.70
2019-01-29T19:35:40.278Z,5.37
2019-01-29T19:38:09.395Z,5.70
2019-01-29T19:40:40.421Z,8.57
2019-01-29T19:43:09.338Z,6.07
2019-01-29T19:45:38.566Z,12.80
2019-01-29T19:48:08.545Z,11.23
2019-01-29T19:50:37.574Z,7.93
2019-01-29T19:53:06.752Z,7.37
2019-01-29T19:55:36.062Z,5.73
2019-01-29T19:58:09.043Z,5.50
2019-01-29T20:00:40.996Z,7.27
2019-01-29T20:03:10.081Z,6.00
2019-01-29T20:05:39.146Z,5.43
2019-01-29T20:08:08.310Z,5.63
2019-01-29T20:10:37.424Z,15.43
2019-01-29T20:13:06.462Z,7.57
2019-01-29T20:15:35.589Z,4.57
2019-01-29T20:18:04.860Z,4.60
2019-01-29T20:20:40.983Z,5.77
2019-01-29T20:23:10.078Z,7.73
2019-01-29T20:25:39.110Z,6.03
2019-01-29T20:28:08.298Z,6.87
2019-01-29T20:30:38.612Z,5.87
2019-01-29T20:33:07.714Z,7.27
2019-01-29T20:35:36.872Z,5.57
2019-01-29T20:38:06.032Z,5.70
2019-01-29T20:40:35.123Z,6.17
2019-01-29T20:43:04.277Z,5.43
2019-01-29T20:45:33.502Z,6.83
2019-01-29T20:48:02.874Z,6.87
2019-01-29T20:50:33.974Z,5.30
2019-01-29T20:53:03.075Z,7.20
2019-01-29T20:55:32.098Z,5.37
2019-01-29T20:58:01.296Z,5.43
2019-01-29T21:00:32.588Z,8.47
2019-01-29T21:03:01.685Z,8.90
2019-01-29T21:05:30.813Z,4.17
2019-01-29T21:08:00.604Z,6.67
2019-01-29T21:10:29.753Z,4.60
2019-01-29T21:12:58.726Z,6.03
2019-01-29T21:15:37.650Z,6.27
2019-01-29T21:17:58.639Z,4.80
2019-01-29T21:20:29.359Z,6.03
2019-01-29T21:22:58.276Z,4.27
2019-01-29T21:25:27.457Z,5.07
2019-01-29T21:27:56.466Z,12.80
2019-01-29T21:30:33.714Z,4.17
2019-01-29T21:33:02.745Z,5.33
2019-01-29T21:35:31.741Z,7.53
2019-01-29T21:38:00.608Z,6.07
2019-01-29T21:40:29.923Z,5.73
2019-01-29T21:42:58.906Z,5.30
2019-01-29T21:45:28.060Z,7.33
2019-01-29T21:47:58.661Z,5.53
2019-01-29T21:50:28.981Z,6.37
2019-01-29T21:52:58.062Z,4.97
2019-01-29T21:55:27.189Z,5.23
2019-01-29T21:57:56.354Z,7.50
2019-01-29T22:00:31.083Z,5.80
2019-01-29T22:03:00.141Z,8.10
2019-01-29T22:05:29.295Z,5.30
2019-01-29T22:07:58.337Z,4.43
2019-01-29T22:10:27.349Z,5.20
2019-01-29T22:12:56.398Z,6.07
2019-01-29T22:15:25.458Z,5.07
2019-01-29T22:17:54.436Z,6.27
2019-01-29T22:20:23.417Z,6.90
2019-01-29T22:22:52.417Z,4.33
2019-01-29T22:25:21.425Z,8.37
2019-01-29T22:27:50.406Z,6.43
2019-01-29T22:30:27.865Z,5.23
2019-01-29T22:32:56.902Z,4.53
2019-01-29T22:35:25.937Z,4.33
2019-01-29T22:37:56.819Z,7.83
2019-01-29T22:40:26.856Z,5.20
2019-01-29T22:42:56.516Z,4.87
2019-01-29T22:45:25.516Z,4.10
2019-01-29T22:47:54.645Z,4.67
2019-01-29T22:50:31.619Z,3.93
2019-01-29T22:53:01.408Z,5.13
2019-01-29T22:55:30.492Z,6.33
2019-01-29T22:57:59.577Z,4.80
2019-01-29T23:01:07.262Z,9.23
2019-01-29T23:03:42.563Z,4.87
2019-01-29T23:06:41.004Z,5.93
2019-01-29T23:09:11.659Z,6.83
2019-01-29T23:11:40.896Z,4.00
2019-01-29T23:14:10.026Z,5.47
2019-01-29T23:16:39.345Z,3.97
2019-01-29T23:19:08.431Z,4.83
2019-01-29T23:21:37.528Z,5.87
2019-01-29T23:24:06.788Z,3.90
2019-01-29T23:26:36.135Z,4.37
2019-01-29T23:29:05.151Z,4.67
2019-01-29T23:31:34.227Z,9.73
2019-01-29T23:34:03.246Z,5.23
2019-01-29T23:36:32.287Z,4.43
2019-01-29T23:39:01.311Z,5.13
2019-01-29T23:41:30.377Z,4.73
2019-01-29T23:43:59.456Z,4.13
2019-01-29T23:46:29.720Z,7.47
2019-01-29T23:48:58.793Z,4.60
2019-01-29T23:51:27.987Z,6.63
2019-01-29T23:53:57.032Z,5.83
2019-01-29T23:56:26.212Z,4.17
2019-01-29T23:58:55.151Z,5.90
